This is the latest recevied weather packets stored in our database for station/object VE2CSM-13. If no packets are shown the sender has not sent any weather packets the latest 10 day(s).
| Time | Temp. | Humidity | Pressure | Rain* | Wind** | Luminosity | Snow |
|---|---|---|---|---|---|---|---|
| 1777198115 | 0.56° C | 84% | 1031.3 hPa | 0 mm | - | - | - |
| 1777196314 | 1.11° C | 81% | 1031.1 hPa | 0 mm | - | - | - |
| 1777194515 | 0.56° C | 83% | 1030.9 hPa | 0 mm | - | - | - |
| 1777192714 | 1.11° C | 82% | 1030.8 hPa | 0 mm | - | - | - |
| 1777190914 | 1.11° C | 81% | 1030.5 hPa | 0 mm | - | - | - |
| 1777189954 | 1.11° C | 80% | 1030.4 hPa | 0 mm | - | - | - |
| 1777188994 | 1.67° C | 79% | 1030.2 hPa | 0 mm | - | - | - |
| 1777187075 | 1.11° C | 83% | 1030.1 hPa | 0 mm | - | - | - |
| 1777186597 | 1.11° C | 82% | 1030.1 hPa | 0 mm | - | - | - |
| 1777186114 | 1.11° C | 81% | 1030 hPa | 0 mm | - | - | - |
| 1777185634 | 1.11° C | 79% | 1030.2 hPa | 0 mm | - | - | - |
| 1777185154 | 1.67° C | 79% | 1029.8 hPa | 0 mm | - | - | - |
| 1777184914 | 1.67° C | 79% | 1029.8 hPa | 0 mm | - | - | - |
| 1777184674 | 1.67° C | 79% | 1030 hPa | 0 mm | - | - | - |
| 1777184437 | 1.67° C | 79% | 1029.9 hPa | 0 mm | - | - | - |
| 1777184195 | 1.67° C | 79% | 1029.9 hPa | 0 mm | - | - | - |
| 1777183835 | 2.22° C | 78% | 1030 hPa | 0 mm | - | - | - |
| 1777183715 | 2.22° C | 78% | 1029.8 hPa | 0 mm | - | - | - |
| 1777183595 | 2.22° C | 78% | 1029.8 hPa | 0 mm | - | - | - |
| 1777183534 | 2.22° C | 78% | 1029.8 hPa | 0 mm | - | - | - |
| 1777183474 | 2.22° C | 78% | 1029.8 hPa | 0 mm | - | - | - |
| 1777183414 | 2.22° C | 78% | 1029.8 hPa | 0 mm | - | - | - |
| 1777180114 | 3.33° C | 71% | 1029.8 hPa | 0 mm | - | - | - |
| 1777178314 | 2.78° C | 76% | 1030 hPa | 0 mm | - | - | - |
| 1777176514 | 3.33° C | 73% | 1029.6 hPa | 0 mm | - | - | - |
* Rain latest hour (hover to see other rain measurements)
** Current wind speed in m/s (hover to see current wind gust speed)